Time;durP1;ratioP1;P1;durP2;ratioP2;P2;SDS_P1;SDS_P2;PMS_P1;PMS_P2;Temp;Humidity;BMP_temperature;BMP_pressure;BME280_temperature;BME280_humidity;BME280_pressure;Samples;Min_cycle;Max_cycle;Signal;HPM_P1;HPM_P2
2022/07/14 00:01:04;;;;;;;;;;;;;;;;;;5073709;28;1525;-67
2022/07/14 00:03:29;;;;;;;;;;;;;;;;;;5073470;28;1207;-67
2022/07/14 00:05:54;;;;;;;;;;;;;;;;;;5080443;28;878;-67
2022/07/14 00:08:19;;;;;;;;;;;;;;;;;;5077798;28;1329;-67
2022/07/14 00:10:44;;;;;;;;;;;;;;;;;;5081450;28;1150;-67
2022/07/14 00:13:10;;;;;;;;;;;;;;;;;;5084180;28;814;-67
2022/07/14 00:15:35;;;;;;;;;;;;;;;;;;5081256;28;1889;-67
2022/07/14 00:18:00;;;;;;;;;;;;;;;;;;5073073;28;1366;-68
2022/07/14 00:20:25;;;;;;;;;;;;;;;;;;5084149;28;1229;-67
2022/07/14 00:22:51;;;;;;;;;;;;;;;;;;5079399;28;1309;-68
2022/07/14 00:25:16;;;;;;;;;;;;;;;;;;5083908;28;1114;-68
2022/07/14 00:27:43;;;;;;;;;;;;;;;;;;5075380;28;1324;-68
2022/07/14 00:30:08;;;;;;;;;;;;;;;;;;5080909;28;1268;-68
2022/07/14 00:32:35;;;;;;;;;;;;;;;;;;5074311;28;1326;-68
2022/07/14 00:35:00;;;;;;;;;;;;;;;;;;5081522;28;1889;-67
2022/07/14 00:37:25;;;;;;;;;;;;;;;;;;5079293;28;1385;-67
2022/07/14 00:39:56;;;;;;;;;;;;;;;;;;5081051;28;1245;-68
2022/07/14 00:42:28;;;;;;;;;;;;;;;;;;5083545;28;1218;-69
2022/07/14 00:44:54;;;;;;;;;;;;;;;;;;5083778;28;880;-69
2022/07/14 00:47:19;;;;;;;;;;;;;;;;;;5076975;28;1374;-68
2022/07/14 00:49:44;;;;;;;;;;;;;;;;;;5083443;28;1173;-69
2022/07/14 00:52:09;;;;;;;;;;;;;;;;;;5075011;28;1488;-69
2022/07/14 00:54:35;;;;;;;;;;;;;;;;;;5082018;28;1963;-68
2022/07/14 00:57:00;;;;;;;;;;;;;;;;;;5083451;28;1190;-68
2022/07/14 00:59:25;;;;;;;;;;;;;;;;;;5081561;28;1292;-68
2022/07/14 01:01:50;;;;;;;;;;;;;;;;;;5076028;28;1354;-68
2022/07/14 01:04:16;;;;;;;;;;;;;;;;;;5077666;28;1291;-68
2022/07/14 01:06:41;;;;;;;;;;;;;;;;;;5077783;28;1326;-68
2022/07/14 01:09:07;;;;;;;;;;;;;;;;;;5082363;28;1068;-68
2022/07/14 01:11:32;;;;;;;;;;;;;;;;;;5083110;28;1094;-68
2022/07/14 01:14:02;;;;;;;;;;;;;;;;;;5081533;28;1378;-68
2022/07/14 01:16:27;;;;;;;;;;;;;;;;;;5075489;28;1965;-68
2022/07/14 01:18:52;;;;;;;;;;;;;;;;;;5081729;28;1458;-67
2022/07/14 01:21:18;;;;;;;;;;;;;;;;;;5081384;28;1392;-68
2022/07/14 01:23:43;;;;;;;;;;;;;;;;;;5078771;28;1343;-67
2022/07/14 01:26:08;;;;;;;;;;;;;;;;;;5080109;28;1417;-67
2022/07/14 01:28:33;;;;;;;;;;;;;;;;;;5079995;28;1390;-67
2022/07/14 01:30:58;;;;;;;;;;;;;;;;;;5077644;28;1366;-67
2022/07/14 01:33:23;;;;;;;;;;;;;;;;;;5082881;28;1178;-67
2022/07/14 01:35:49;;;;;;;;;;;;;;;;;;5082440;28;1893;-68
2022/07/14 01:38:15;;;;;;;;;;;;;;;;;;5071386;28;1485;-67
2022/07/14 01:40:40;;;;;;;;;;;;;;;;;;5075479;28;1387;-68
2022/07/14 01:43:05;;;;;;;;;;;;;;;;;;5078505;28;1254;-67
2022/07/14 01:45:32;;;;;;;;;;;;;;;;;;5077420;28;1349;-67
2022/07/14 01:47:57;;;;;;;;;;;;;;;;;;5075273;28;1371;-67
2022/07/14 01:50:23;;;;;;;;;;;;;;;;;;5077391;28;1362;-67
2022/07/14 01:52:48;;;;;;;;;;;;;;;;;;5074432;28;1298;-67
2022/07/14 01:55:13;;;;;;;;;;;;;;;;;;5075537;28;1901;-67
2022/07/14 01:57:38;;;;;;;;;;;;;;;;;;5079921;28;1590;-67
2022/07/14 02:00:04;;;;;;;;;;;;;;;;;;5079743;28;1429;-67
2022/07/14 02:02:30;;;;;;;;;;;;;;;;;;5080695;28;1120;-67
2022/07/14 02:04:55;;;;;;;;;;;;;;;;;;5082362;28;1135;-67
2022/07/14 02:07:20;;;;;;;;;;;;;;;;;;5079985;28;1322;-68
2022/07/14 02:12:29;;;;;;;;;;;;;;;;;;5073060;28;1307;-67
2022/07/14 02:14:54;;;;;;;;;;;;;;;;;;5079519;28;1976;-68
2022/07/14 02:17:19;;;;;;;;;;;;;;;;;;5074906;28;1350;-67
2022/07/14 02:19:45;;;;;;;;;;;;;;;;;;5076145;28;1254;-68
2022/07/14 02:22:10;;;;;;;;;;;;;;;;;;5061901;28;961;-68
2022/07/14 02:24:35;;;;;;;;;;;;;;;;;;5074732;28;1405;-68
2022/07/14 02:27:00;;;;;;;;;;;;;;;;;;5076209;28;1378;-68
2022/07/14 02:29:26;;;;;;;;;;;;;;;;;;5081609;28;1130;-67
2022/07/14 02:31:51;;;;;;;;;;;;;;;;;;5074545;28;1287;-67
2022/07/14 02:34:17;;;;;;;;;;;;;;;;;;5081109;28;1122;-67
2022/07/14 02:36:42;;;;;;;;;;;;;;;;;;5077946;28;1882;-67
2022/07/14 02:39:08;;;;;;;;;;;;;;;;;;5078879;28;1374;-67
2022/07/14 02:41:33;;;;;;;;;;;;;;;;;;5081050;28;1188;-67
2022/07/14 02:43:58;;;;;;;;;;;;;;;;;;5078997;28;1362;-67
2022/07/14 02:46:23;;;;;;;;;;;;;;;;;;5074370;28;1391;-68
2022/07/14 02:48:49;;;;;;;;;;;;;;;;;;5080667;28;1348;-67
2022/07/14 02:51:15;;;;;;;;;;;;;;;;;;5070351;28;1421;-67
2022/07/14 02:53:40;;;;;;;;;;;;;;;;;;5077153;28;1064;-67
2022/07/14 02:56:06;;;;;;;;;;;;;;;;;;5081462;28;1949;-68
2022/07/14 02:58:31;;;;;;;;;;;;;;;;;;5076177;28;1334;-68
2022/07/14 03:00:56;;;;;;;;;;;;;;;;;;5072161;28;1307;-69
2022/07/14 03:03:22;;;;;;;;;;;;;;;;;;5076137;28;1385;-68
2022/07/14 03:05:47;;;;;;;;;;;;;;;;;;5078869;28;1318;-69
2022/07/14 03:08:13;;;;;;;;;;;;;;;;;;5081028;28;1259;-68
2022/07/14 03:10:38;;;;;;;;;;;;;;;;;;5080153;28;910;-69
2022/07/14 03:13:03;;;;;;;;;;;;;;;;;;5079158;28;1424;-69
2022/07/14 03:15:28;;;;;;;;;;;;;;;;;;5075295;28;1957;-68
2022/07/14 03:17:53;;;;;;;;;;;;;;;;;;5078099;28;1250;-68
2022/07/14 03:20:19;;;;;;;;;;;;;;;;;;5079133;28;1469;-68
2022/07/14 03:22:45;;;;;;;;;;;;;;;;;;5068570;28;1371;-68
2022/07/14 03:25:11;;;;;;;;;;;;;;;;;;5081245;28;1203;-68
2022/07/14 03:27:38;;;;;;;;;;;;;;;;;;5077254;28;1335;-68
2022/07/14 03:30:03;;;;;;;;;;;;;;;;;;5076673;28;1477;-67
2022/07/14 03:32:29;;;;;;;;;;;;;;;;;;5075517;28;1132;-69
2022/07/14 03:34:54;;;;;;;;;;;;;;;;;;5063287;28;1890;-70
2022/07/14 03:37:19;;;;;;;;;;;;;;;;;;5064583;28;1488;-69
2022/07/14 03:39:45;;;;;;;;;;;;;;;;;;5080785;28;1076;-69
2022/07/14 03:42:11;;;;;;;;;;;;;;;;;;5075756;28;1376;-69
2022/07/14 03:44:36;;;;;;;;;;;;;;;;;;5079578;28;1363;-68
2022/07/14 03:47:01;;;;;;;;;;;;;;;;;;5067635;28;1374;-68
2022/07/14 03:49:26;;;;;;;;;;;;;;;;;;5078199;28;1214;-68
2022/07/14 03:51:52;;;;;;;;;;;;;;;;;;5072596;28;1345;-68
2022/07/14 03:54:17;;;;;;;;;;;;;;;;;;5084689;28;1107;-68
2022/07/14 03:56:42;;;;;;;;;;;;;;;;;;5078551;28;1902;-68
2022/07/14 03:59:10;;;;;;;;;;;;;;;;;;5076998;28;1208;-68
2022/07/14 04:01:36;;;;;;;;;;;;;;;;;;5077449;28;1263;-69
2022/07/14 04:04:03;;;;;;;;;;;;;;;;;;5082876;28;1238;-69
2022/07/14 04:06:28;;;;;;;;;;;;;;;;;;5083526;28;1552;-69
2022/07/14 04:08:54;;;;;;;;;;;;;;;;;;5078508;28;1346;-68
2022/07/14 04:11:19;;;;;;;;;;;;;;;;;;5078990;28;1393;-69
2022/07/14 04:13:45;;;;;;;;;;;;;;;;;;5083179;28;1179;-69
2022/07/14 04:16:10;;;;;;;;;;;;;;;;;;5079128;28;1906;-69
2022/07/14 04:18:36;;;;;;;;;;;;;;;;;;5084169;28;1163;-68
2022/07/14 04:21:01;;;;;;;;;;;;;;;;;;5080290;28;1489;-68
2022/07/14 04:23:26;;;;;;;;;;;;;;;;;;5084129;28;1214;-67
2022/07/14 04:25:51;;;;;;;;;;;;;;;;;;5084568;28;1005;-68
2022/07/14 04:28:17;;;;;;;;;;;;;;;;;;5074909;28;1327;-68
2022/07/14 04:30:42;;;;;;;;;;;;;;;;;;5072665;28;1410;-67
2022/07/14 04:33:09;;;;;;;;;;;;;;;;;;5075714;28;1274;-67
2022/07/14 04:35:34;;;;;;;;;;;;;;;;;;5072468;28;1895;-67
2022/07/14 04:38:00;;;;;;;;;;;;;;;;;;5074787;28;1385;-69
2022/07/14 04:40:25;;;;;;;;;;;;;;;;;;5075456;28;1269;-67
2022/07/14 04:42:50;;;;;;;;;;;;;;;;;;5074231;28;1367;-65
2022/07/14 04:45:15;;;;;;;;;;;;;;;;;;5069957;28;1457;-65
2022/07/14 04:47:40;;;;;;;;;;;;;;;;;;5074144;28;1389;-65
2022/07/14 04:52:50;;;;;;;;;;;;;;;;;;5074724;28;1489;-66
2022/07/14 04:55:15;;;;;;;;;;;;;;;;;;5075072;28;1906;-66
2022/07/14 04:57:41;;;;;;;;;;;;;;;;;;5073189;28;1440;-66
2022/07/14 05:00:07;;;;;;;;;;;;;;;;;;5071356;28;1359;-66
2022/07/14 05:02:32;;;;;;;;;;;;;;;;;;5076549;28;1274;-66
2022/07/14 05:04:58;;;;;;;;;;;;;;;;;;5074061;28;1269;-66
2022/07/14 05:07:24;;;;;;;;;;;;;;;;;;5069123;28;1378;-65
2022/07/14 05:09:49;;;;;;;;;;;;;;;;;;5073880;28;1064;-66
2022/07/14 05:12:16;;;;;;;;;;;;;;;;;;5068343;28;1206;-66
2022/07/14 05:14:41;;;;;;;;;;;;;;;;;;5069769;28;1902;-66
2022/07/14 05:17:06;;;;;;;;;;;;;;;;;;5073970;28;1421;-66
2022/07/14 05:19:32;;;;;;;;;;;;;;;;;;5075789;28;1292;-66
2022/07/14 05:21:57;;;;;;;;;;;;;;;;;;5080178;28;1335;-66
2022/07/14 05:24:22;;;;;;;;;;;;;;;;;;5083242;28;1111;-66
2022/07/14 05:26:47;;;;;;;;;;;;;;;;;;5082402;28;1184;-64
2022/07/14 05:29:13;;;;;;;;;;;;;;;;;;5077214;28;1380;-66
2022/07/14 05:31:38;;;;;;;;;;;;;;;;;;5073826;28;1552;-66
2022/07/14 05:34:03;;;;;;;;;;;;;;;;;;5082267;28;1156;-66
2022/07/14 05:36:28;;;;;;;;;;;;;;;;;;5074585;28;1964;-66
2022/07/14 05:38:54;;;;;;;;;;;;;;;;;;5066991;28;1404;-66
2022/07/14 05:41:22;;;;;;;;;;;;;;;;;;5078376;28;1476;-66
2022/07/14 05:43:47;;;;;;;;;;;;;;;;;;5076463;28;1528;-66
2022/07/14 05:46:13;;;;;;;;;;;;;;;;;;5071947;28;1584;-67
2022/07/14 05:48:38;;;;;;;;;;;;;;;;;;5076755;28;1320;-66
2022/07/14 05:51:04;;;;;;;;;;;;;;;;;;5079352;28;1231;-66
2022/07/14 05:53:29;;;;;;;;;;;;;;;;;;5087002;28;1370;-66
2022/07/14 05:55:54;;;;;;;;;;;;;;;;;;5089862;28;1889;-66
2022/07/14 05:58:20;;;;;;;;;;;;;;;;;;5088941;28;1295;-66
2022/07/14 06:00:45;;;;;;;;;;;;;;;;;;5083751;28;1339;-66
2022/07/14 06:03:10;;;;;;;;;;;;;;;;;;5085131;28;1050;-66
2022/07/14 06:05:35;;;;;;;;;;;;;;;;;;5087967;28;1190;-67
2022/07/14 06:08:01;;;;;;;;;;;;;;;;;;5076705;28;1376;-67
2022/07/14 06:10:26;;;;;;;;;;;;;;;;;;5079322;28;1350;-67
2022/07/14 06:12:51;;;;;;;;;;;;;;;;;;5081359;28;1594;-66
2022/07/14 06:15:16;;;;;;;;;;;;;;;;;;5083330;28;1952;-65
2022/07/14 06:17:42;;;;;;;;;;;;;;;;;;5081146;28;1391;-66
2022/07/14 06:20:07;;;;;;;;;;;;;;;;;;5081912;28;1149;-67
2022/07/14 06:22:33;;;;;;;;;;;;;;;;;;5083992;28;1287;-67
2022/07/14 06:24:58;;;;;;;;;;;;;;;;;;5083691;28;1209;-67
2022/07/14 06:27:23;;;;;;;;;;;;;;;;;;5084819;28;1446;-66
2022/07/14 06:29:49;;;;;;;;;;;;;;;;;;5084360;28;1296;-67
2022/07/14 06:32:14;;;;;;;;;;;;;;;;;;5079342;28;1338;-67
2022/07/14 06:34:40;;;;;;;;;;;;;;;;;;5089155;28;1902;-67
2022/07/14 06:37:05;;;;;;;;;;;;;;;;;;5080719;28;1608;-67
2022/07/14 06:39:33;;;;;;;;;;;;;;;;;;5079287;28;1422;-68
2022/07/14 06:41:58;;;;;;;;;;;;;;;;;;5079515;28;1371;-68
2022/07/14 06:44:23;;;;;;;;;;;;;;;;;;5081366;28;1518;-67
2022/07/14 06:46:48;;;;;;;;;;;;;;;;;;5075895;28;1586;-67
2022/07/14 06:49:13;;;;;;;;;;;;;;;;;;5081100;28;1331;-67
2022/07/14 06:51:39;;;;;;;;;;;;;;;;;;5080878;28;1355;-68
2022/07/14 06:54:04;;;;;;;;;;;;;;;;;;5088096;28;1047;-68
2022/07/14 06:56:30;;;;;;;;;;;;;;;;;;5090015;28;1969;-68
2022/07/14 06:58:55;;;;;;;;;;;;;;;;;;5088114;28;1473;-67
2022/07/14 07:01:20;;;;;;;;;;;;;;;;;;5082393;28;1370;-67
2022/07/14 07:03:45;;;;;;;;;;;;;;;;;;5082830;28;1240;-67
2022/07/14 07:08:54;;;;;;;;;;;;;;;;;;5078192;28;1366;-67
2022/07/14 07:11:19;;;;;;;;;;;;;;;;;;5084556;28;1278;-67
2022/07/14 07:13:45;;;;;;;;;;;;;;;;;;5087313;28;1357;-66
2022/07/14 07:16:10;;;;;;;;;;;;;;;;;;5081726;28;1967;-66
2022/07/14 07:18:35;;;;;;;;;;;;;;;;;;5078818;28;1301;-66
2022/07/14 07:21:01;;;;;;;;;;;;;;;;;;5086116;28;1246;-66
2022/07/14 07:23:26;;;;;;;;;;;;;;;;;;5084588;28;1438;-66
2022/07/14 07:25:52;;;;;;;;;;;;;;;;;;5084615;28;1407;-66
2022/07/14 07:28:17;;;;;;;;;;;;;;;;;;5086006;28;1405;-67
2022/07/14 07:30:42;;;;;;;;;;;;;;;;;;5083687;28;1560;-67
2022/07/14 07:33:08;;;;;;;;;;;;;;;;;;5085164;28;1442;-68
2022/07/14 07:35:33;;;;;;;;;;;;;;;;;;5085516;28;1890;-67
2022/07/14 07:37:58;;;;;;;;;;;;;;;;;;5088070;28;1374;-68
2022/07/14 07:40:23;;;;;;;;;;;;;;;;;;5087156;28;1166;-67
2022/07/14 07:42:49;;;;;;;;;;;;;;;;;;5088527;28;1493;-67
2022/07/14 07:45:14;;;;;;;;;;;;;;;;;;5081041;28;1397;-67
2022/07/14 07:47:39;;;;;;;;;;;;;;;;;;5080522;28;1504;-67
2022/07/14 07:50:05;;;;;;;;;;;;;;;;;;5078608;28;1355;-67
2022/07/14 07:52:31;;;;;;;;;;;;;;;;;;5086088;28;1569;-67
2022/07/14 07:54:56;;;;;;;;;;;;;;;;;;5076573;28;1893;-67
2022/07/14 07:57:21;;;;;;;;;;;;;;;;;;5086277;28;1468;-66
2022/07/14 07:59:49;;;;;;;;;;;;;;;;;;5081238;28;1369;-66
2022/07/14 08:02:14;;;;;;;;;;;;;;;;;;5081736;28;1596;-67
2022/07/14 08:04:39;;;;;;;;;;;;;;;;;;5088224;28;1303;-67
2022/07/14 08:07:05;;;;;;;;;;;;;;;;;;5081067;28;1274;-66
2022/07/14 08:09:30;;;;;;;;;;;;;;;;;;5078269;28;1460;-66
2022/07/14 08:12:05;;;;;;;;;;;;;;;;;;5083597;28;1190;-68
2022/07/14 08:14:49;;;;;;;;;;;;;;;;;;5084704;28;1370;-67
2022/07/14 08:17:15;;;;;;;;;;;;;;;;;;5079374;28;1468;-68
2022/07/14 08:19:40;;;;;;;;;;;;;;;;;;5076227;28;1954;-69
2022/07/14 08:22:05;;;;;;;;;;;;;;;;;;5077410;28;1815;-67
2022/07/14 08:24:31;;;;;;;;;;;;;;;;;;5083338;28;1516;-67
2022/07/14 08:26:56;;;;;;;;;;;;;;;;;;5090950;28;1385;-66
2022/07/14 08:29:21;;;;;;;;;;;;;;;;;;5079129;28;1315;-66
2022/07/14 08:31:47;;;;;;;;;;;;;;;;;;5081093;28;1473;-66
2022/07/14 08:34:12;;;;;;;;;;;;;;;;;;5091699;28;1148;-67
2022/07/14 08:36:38;;;;;;;;;;;;;;;;;;5086687;28;1956;-66
2022/07/14 08:39:05;;;;;;;;;;;;;;;;;;5085851;28;1080;-66
2022/07/14 08:41:31;;;;;;;;;;;;;;;;;;5091720;28;1269;-67
2022/07/14 08:43:56;;;;;;;;;;;;;;;;;;5090432;28;1369;-67
2022/07/14 08:46:22;;;;;;;;;;;;;;;;;;5088860;28;1438;-67
2022/07/14 08:48:47;;;;;;;;;;;;;;;;;;5094807;28;1217;-67
2022/07/14 08:51:12;;;;;;;;;;;;;;;;;;5092316;28;1338;-66
2022/07/14 08:53:38;;;;;;;;;;;;;;;;;;5076257;28;1454;-66
2022/07/14 08:56:03;;;;;;;;;;;;;;;;;;5085743;28;1902;-67
2022/07/14 08:58:28;;;;;;;;;;;;;;;;;;5089617;28;1280;-66
2022/07/14 09:00:53;;;;;;;;;;;;;;;;;;5087710;28;1329;-66
2022/07/14 09:03:19;;;;;;;;;;;;;;;;;;5091238;28;1261;-67
2022/07/14 09:05:45;;;;;;;;;;;;;;;;;;5085881;28;1343;-67
2022/07/14 09:08:11;;;;;;;;;;;;;;;;;;5081025;28;1640;-67
2022/07/14 09:10:37;;;;;;;;;;;;;;;;;;5088477;28;1285;-67
2022/07/14 09:13:09;;;;;;;;;;;;;;;;;;5093743;28;1429;-67
2022/07/14 09:15:46;;;;;;;;;;;;;;;;;;5081563;28;1870;-67
2022/07/14 09:18:41;;;;;;;;;;;;;;;;;;5086605;28;1370;-67
2022/07/14 09:21:18;;;;;;;;;;;;;;;;;;5062651;28;1386;-67
2022/07/14 09:23:44;;;;;;;;;;;;;;;;;;5087113;28;1355;-68
2022/07/14 09:26:16;;;;;;;;;;;;;;;;;;5089125;28;1358;-67
2022/07/14 09:28:42;;;;;;;;;;;;;;;;;;5096939;28;1345;-67
2022/07/14 09:31:24;;;;;;;;;;;;;;;;;;5084849;28;1366;-67
2022/07/14 09:33:50;;;;;;;;;;;;;;;;;;5091972;28;1199;-67
2022/07/14 09:36:19;;;;;;;;;;;;;;;;;;5086905;28;1961;-67
2022/07/14 09:38:44;;;;;;;;;;;;;;;;;;5070791;28;1705;-67
2022/07/14 09:41:10;;;;;;;;;;;;;;;;;;5081268;28;1334;-66
2022/07/14 09:43:35;;;;;;;;;;;;;;;;;;5081372;28;1143;-66
2022/07/14 09:46:00;;;;;;;;;;;;;;;;;;5077370;28;1359;-67
2022/07/14 09:48:25;;;;;;;;;;;;;;;;;;5077007;28;1390;-66
2022/07/14 09:50:54;;;;;;;;;;;;;;;;;;5073825;28;1322;-65
2022/07/14 09:53:21;;;;;;;;;;;;;;;;;;5066688;28;1397;-65
2022/07/14 09:55:51;;;;;;;;;;;;;;;;;;5080646;28;1947;-65
2022/07/14 09:58:17;;;;;;;;;;;;;;;;;;5062480;28;1466;-66
2022/07/14 10:00:43;;;;;;;;;;;;;;;;;;5068849;28;1478;-67
2022/07/14 10:03:08;;;;;;;;;;;;;;;;;;5078424;28;1378;-66
2022/07/14 10:05:34;;;;;;;;;;;;;;;;;;5074262;28;1394;-65
2022/07/14 10:08:01;;;;;;;;;;;;;;;;;;5067141;28;1729;-66
2022/07/14 10:10:26;;;;;;;;;;;;;;;;;;5075900;28;1147;-66
2022/07/14 10:12:52;;;;;;;;;;;;;;;;;;5082154;28;1273;-65
2022/07/14 10:15:17;;;;;;;;;;;;;;;;;;5078193;28;1882;-66
2022/07/14 10:17:43;;;;;;;;;;;;;;;;;;5073315;28;1588;-66
2022/07/14 10:20:10;;;;;;;;;;;;;;;;;;5080618;28;1537;-66
2022/07/14 10:22:35;;;;;;;;;;;;;;;;;;5079855;28;1408;-65
2022/07/14 10:25:02;;;;;;;;;;;;;;;;;;5071398;28;1876;-66
2022/07/14 10:27:27;;;;;;;;;;;;;;;;;;5071718;28;1474;-65
2022/07/14 10:29:53;;;;;;;;;;;;;;;;;;5081095;28;1363;-65
2022/07/14 10:32:37;;;;;;;;;;;;;;;;;;5074245;28;1412;-66
2022/07/14 10:35:21;;;;;;;;;;;;;;;;;;5081134;28;1886;-66
2022/07/14 10:37:52;;;;;;;;;;;;;;;;;;5076048;28;1373;-67
2022/07/14 10:40:29;;;;;;;;;;;;;;;;;;5066129;28;1394;-67
2022/07/14 10:43:03;;;;;;;;;;;;;;;;;;5076456;28;1495;-67
2022/07/14 10:45:28;;;;;;;;;;;;;;;;;;5076709;28;1450;-66
2022/07/14 10:47:53;;;;;;;;;;;;;;;;;;5076493;28;1662;-66
2022/07/14 10:50:28;;;;;;;;;;;;;;;;;;5066040;28;1521;-67
2022/07/14 10:52:53;;;;;;;;;;;;;;;;;;5075155;28;1422;-67
2022/07/14 10:55:27;;;;;;;;;;;;;;;;;;5080999;28;1955;-68
2022/07/14 10:57:58;;;;;;;;;;;;;;;;;;5080933;28;1410;-67
2022/07/14 11:00:38;;;;;;;;;;;;;;;;;;5079164;28;1304;-66
2022/07/14 11:03:22;;;;;;;;;;;;;;;;;;5073234;28;1370;-67
2022/07/14 11:06:09;;;;;;;;;;;;;;;;;;5078379;28;1841;-68
2022/07/14 11:08:37;;;;;;;;;;;;;;;;;;5075573;28;1358;-67
2022/07/14 11:11:08;;;;;;;;;;;;;;;;;;5073909;28;1588;-66
2022/07/14 11:13:33;;;;;;;;;;;;;;;;;;5073348;28;1399;-66
2022/07/14 11:16:00;;;;;;;;;;;;;;;;;;5072645;28;1893;-67
2022/07/14 11:18:26;;;;;;;;;;;;;;;;;;5080906;28;1295;-67
2022/07/14 11:21:16;;;;;;;;;;;;;;;;;;5081349;28;826;-67
2022/07/14 11:23:43;;;;;;;;;;;;;;;;;;5077193;28;1211;-67
2022/07/14 11:26:28;;;;;;;;;;;;;;;;;;5080024;28;1392;-67
2022/07/14 11:28:55;;;;;;;;;;;;;;;;;;5089969;28;1224;-67
2022/07/14 11:31:22;;;;;;;;;;;;;;;;;;5083837;28;1342;-67
2022/07/14 11:36:33;;;;;;;;;;;;;;;;;;5069307;28;1961;-67
2022/07/14 11:39:16;;;;;;;;;;;;;;;;;;5071463;28;1171;-67
2022/07/14 11:41:43;;;;;;;;;;;;;;;;;;5068507;28;1402;-67
2022/07/14 11:44:47;;;;;;;;;;;;;;;;;;5068045;28;1527;-65
2022/07/14 11:47:17;;;;;;;;;;;;;;;;;;5010484;28;1586;-65
2022/07/14 11:49:54;;;;;;;;;;;;;;;;;;5006563;28;1786;-64
2022/07/14 11:52:33;;;;;;;;;;;;;;;;;;5039590;28;1406;-64
2022/07/14 11:54:59;;;;;;;;;;;;;;;;;;5072532;28;2147;-65
2022/07/14 11:57:24;;;;;;;;;;;;;;;;;;5079251;28;1350;-65
2022/07/14 11:59:50;;;;;;;;;;;;;;;;;;5080843;28;1262;-66
2022/07/14 12:02:19;;;;;;;;;;;;;;;;;;5066462;28;1350;-66
2022/07/14 12:04:55;;;;;;;;;;;;;;;;;;5080579;28;1071;-64
2022/07/14 12:07:21;;;;;;;;;;;;;;;;;;5078323;28;1417;-65
2022/07/14 12:09:47;;;;;;;;;;;;;;;;;;5072875;28;1335;-65
2022/07/14 12:12:13;;;;;;;;;;;;;;;;;;5079755;28;1418;-65
2022/07/14 12:14:45;;;;;;;;;;;;;;;;;;5078579;28;1406;-65
2022/07/14 12:17:10;;;;;;;;;;;;;;;;;;5075458;28;1440;-67
2022/07/14 12:19:36;;;;;;;;;;;;;;;;;;5083978;28;1154;-66
2022/07/14 12:22:03;;;;;;;;;;;;;;;;;;5072287;28;1544;-63
2022/07/14 12:24:28;;;;;;;;;;;;;;;;;;5072707;28;1350;-64
2022/07/14 12:27:00;;;;;;;;;;;;;;;;;;5065136;28;1929;-64
2022/07/14 12:29:28;;;;;;;;;;;;;;;;;;5083180;28;909;-63
2022/07/14 12:31:55;;;;;;;;;;;;;;;;;;5076655;28;1342;-64
2022/07/14 12:34:20;;;;;;;;;;;;;;;;;;5081690;28;1362;-64
2022/07/14 12:36:46;;;;;;;;;;;;;;;;;;5080887;28;1943;-64
2022/07/14 12:39:12;;;;;;;;;;;;;;;;;;5082113;28;1346;-63
2022/07/14 12:41:38;;;;;;;;;;;;;;;;;;5082941;28;1406;-64
2022/07/14 12:44:04;;;;;;;;;;;;;;;;;;5081088;28;1669;-64
2022/07/14 12:46:32;;;;;;;;;;;;;;;;;;5070711;28;2023;-65
2022/07/14 12:48:59;;;;;;;;;;;;;;;;;;5075649;28;1346;-64
2022/07/14 12:51:29;;;;;;;;;;;;;;;;;;5079500;28;1426;-64
2022/07/14 12:53:59;;;;;;;;;;;;;;;;;;5081884;28;1299;-64
2022/07/14 12:56:29;;;;;;;;;;;;;;;;;;5083510;28;1907;-65
2022/07/14 12:58:56;;;;;;;;;;;;;;;;;;5077683;28;1521;-64
2022/07/14 13:01:21;;;;;;;;;;;;;;;;;;5066059;28;1673;-64
2022/07/14 13:03:57;;;;;;;;;;;;;;;;;;5079311;28;1745;-64
2022/07/14 13:06:23;;;;;;;;;;;;;;;;;;5063403;28;1446;-64
2022/07/14 13:08:48;;;;;;;;;;;;;;;;;;5072543;28;1378;-64
2022/07/14 13:11:15;;;;;;;;;;;;;;;;;;5075135;28;1143;-64
2022/07/14 13:13:42;;;;;;;;;;;;;;;;;;5074578;28;1474;-64
2022/07/14 13:16:16;;;;;;;;;;;;;;;;;;5073256;28;1894;-64
2022/07/14 13:19:00;;;;;;;;;;;;;;;;;;5074401;28;1162;-64
2022/07/14 13:21:43;;;;;;;;;;;;;;;;;;5082541;28;1398;-64
2022/07/14 13:24:15;;;;;;;;;;;;;;;;;;5079893;28;1335;-64
2022/07/14 13:26:41;;;;;;;;;;;;;;;;;;5081813;28;1505;-65
2022/07/14 13:29:07;;;;;;;;;;;;;;;;;;5071113;28;1437;-64
2022/07/14 13:31:32;;;;;;;;;;;;;;;;;;5065231;28;1529;-63
2022/07/14 13:34:01;;;;;;;;;;;;;;;;;;5079574;28;2174;-64
2022/07/14 13:36:27;;;;;;;;;;;;;;;;;;5089740;28;1885;-64
2022/07/14 13:38:52;;;;;;;;;;;;;;;;;;5077029;28;1651;-64
2022/07/14 13:41:18;;;;;;;;;;;;;;;;;;5086215;28;1447;-64
2022/07/14 13:43:45;;;;;;;;;;;;;;;;;;5081420;28;1192;-65
2022/07/14 13:46:11;;;;;;;;;;;;;;;;;;5074733;28;1388;-64
2022/07/14 13:48:36;;;;;;;;;;;;;;;;;;5078296;28;1386;-64
2022/07/14 13:53:46;;;;;;;;;;;;;;;;;;5083817;28;1501;-64
2022/07/14 13:56:12;;;;;;;;;;;;;;;;;;5083510;28;1952;-64
2022/07/14 13:58:37;;;;;;;;;;;;;;;;;;5085749;28;1230;-64
2022/07/14 14:01:02;;;;;;;;;;;;;;;;;;5087855;28;1470;-65
2022/07/14 14:03:28;;;;;;;;;;;;;;;;;;5087865;28;1403;-65
2022/07/14 14:05:54;;;;;;;;;;;;;;;;;;5090355;28;1226;-64
2022/07/14 14:08:19;;;;;;;;;;;;;;;;;;5078637;28;1449;-64
2022/07/14 14:10:44;;;;;;;;;;;;;;;;;;5085085;28;1545;-63
2022/07/14 14:13:10;;;;;;;;;;;;;;;;;;5092395;28;1225;-63
2022/07/14 14:15:35;;;;;;;;;;;;;;;;;;5089296;28;1953;-64
2022/07/14 14:18:00;;;;;;;;;;;;;;;;;;5082605;28;1361;-63
2022/07/14 14:20:28;;;;;;;;;;;;;;;;;;5088728;28;1249;-63
2022/07/14 14:22:54;;;;;;;;;;;;;;;;;;5083279;28;1358;-64
2022/07/14 14:25:19;;;;;;;;;;;;;;;;;;5089543;28;1333;-63
2022/07/14 14:27:44;;;;;;;;;;;;;;;;;;5080881;28;1607;-64
2022/07/14 14:30:10;;;;;;;;;;;;;;;;;;5082417;28;1390;-63
2022/07/14 14:32:35;;;;;;;;;;;;;;;;;;5081275;28;1454;-64
2022/07/14 14:35:00;;;;;;;;;;;;;;;;;;5089153;28;1957;-64
2022/07/14 14:37:25;;;;;;;;;;;;;;;;;;5083867;28;1374;-66
2022/07/14 14:39:51;;;;;;;;;;;;;;;;;;5087556;28;1372;-64
2022/07/14 14:42:16;;;;;;;;;;;;;;;;;;5089484;28;1249;-64
2022/07/14 14:44:42;;;;;;;;;;;;;;;;;;5089372;28;1328;-64
2022/07/14 14:47:07;;;;;;;;;;;;;;;;;;5080199;28;1354;-65
2022/07/14 14:49:35;;;;;;;;;;;;;;;;;;5078882;28;1405;-65
2022/07/14 14:52:00;;;;;;;;;;;;;;;;;;5081045;28;1358;-65
2022/07/14 14:54:25;;;;;;;;;;;;;;;;;;5090447;28;1241;-63
2022/07/14 14:56:50;;;;;;;;;;;;;;;;;;5092484;28;1918;-64
2022/07/14 14:59:15;;;;;;;;;;;;;;;;;;5081107;28;1365;-64
2022/07/14 15:01:41;;;;;;;;;;;;;;;;;;5076769;28;1818;-64
2022/07/14 15:04:06;;;;;;;;;;;;;;;;;;5067432;28;1472;-64
2022/07/14 15:06:31;;;;;;;;;;;;;;;;;;5069620;28;1462;-64
2022/07/14 15:08:57;;;;;;;;;;;;;;;;;;5071148;28;1374;-64
2022/07/14 15:11:22;;;;;;;;;;;;;;;;;;5069415;28;1499;-63
2022/07/14 15:13:47;;;;;;;;;;;;;;;;;;5079681;28;1382;-65
2022/07/14 15:16:13;;;;;;;;;;;;;;;;;;5074165;28;1945;-64
2022/07/14 15:18:38;;;;;;;;;;;;;;;;;;5080978;28;1146;-63
2022/07/14 15:21:03;;;;;;;;;;;;;;;;;;5079100;28;1355;-64
2022/07/14 15:23:28;;;;;;;;;;;;;;;;;;5074615;28;1401;-65
2022/07/14 15:25:54;;;;;;;;;;;;;;;;;;5062238;28;1485;-64
2022/07/14 15:28:19;;;;;;;;;;;;;;;;;;5065053;28;1505;-64
2022/07/14 15:30:44;;;;;;;;;;;;;;;;;;5071747;28;1553;-64
2022/07/14 15:33:09;;;;;;;;;;;;;;;;;;5069780;28;1807;-64
2022/07/14 15:35:34;;;;;;;;;;;;;;;;;;5073486;28;1926;-61
2022/07/14 15:38:00;;;;;;;;;;;;;;;;;;5074211;28;1413;-65
2022/07/14 15:43:09;;;;;;;;;;;;;;;;;;5078534;28;1319;-65
2022/07/14 15:45:34;;;;;;;;;;;;;;;;;;5075537;28;1440;-64
2022/07/14 15:47:59;;;;;;;;;;;;;;;;;;5075091;28;1588;-64
2022/07/14 15:50:25;;;;;;;;;;;;;;;;;;5079557;28;1674;-64
2022/07/14 15:52:50;;;;;;;;;;;;;;;;;;5078697;28;1706;-65
2022/07/14 15:55:15;;;;;;;;;;;;;;;;;;5075375;28;1902;-65
2022/07/14 15:57:41;;;;;;;;;;;;;;;;;;5080156;28;1414;-65
2022/07/14 16:00:09;;;;;;;;;;;;;;;;;;5076402;28;1402;-65
2022/07/14 16:02:34;;;;;;;;;;;;;;;;;;5080187;28;1362;-66
2022/07/14 16:04:59;;;;;;;;;;;;;;;;;;5083072;28;1356;-67
2022/07/14 16:07:24;;;;;;;;;;;;;;;;;;5076270;28;1744;-66
2022/07/14 16:09:50;;;;;;;;;;;;;;;;;;5074686;28;2027;-66
2022/07/14 16:12:15;;;;;;;;;;;;;;;;;;5084287;28;1202;-65
2022/07/14 16:14:40;;;;;;;;;;;;;;;;;;5080767;28;1365;-65
2022/07/14 16:17:05;;;;;;;;;;;;;;;;;;5071531;28;1881;-65
2022/07/14 16:19:32;;;;;;;;;;;;;;;;;;5082338;28;1522;-66
2022/07/14 16:21:57;;;;;;;;;;;;;;;;;;5076552;28;1397;-65
2022/07/14 16:24:22;;;;;;;;;;;;;;;;;;5083778;28;1123;-66
2022/07/14 16:26:47;;;;;;;;;;;;;;;;;;5080557;28;1505;-65
2022/07/14 16:29:12;;;;;;;;;;;;;;;;;;5083707;28;1233;-65
2022/07/14 16:31:38;;;;;;;;;;;;;;;;;;5072521;28;1470;-64
2022/07/14 16:34:03;;;;;;;;;;;;;;;;;;5083935;28;1206;-65
2022/07/14 16:36:28;;;;;;;;;;;;;;;;;;5070761;28;1890;-65
2022/07/14 16:38:55;;;;;;;;;;;;;;;;;;5083604;28;1131;-65
2022/07/14 16:41:20;;;;;;;;;;;;;;;;;;5083804;28;889;-65
2022/07/14 16:43:45;;;;;;;;;;;;;;;;;;5082669;28;1516;-65
2022/07/14 16:46:17;;;;;;;;;;;;;;;;;;5065676;28;1350;-65
2022/07/14 16:48:43;;;;;;;;;;;;;;;;;;5077069;28;1398;-66
2022/07/14 16:51:08;;;;;;;;;;;;;;;;;;5081959;28;1355;-66
2022/07/14 16:53:33;;;;;;;;;;;;;;;;;;5081545;28;1382;-64
2022/07/14 16:55:58;;;;;;;;;;;;;;;;;;5077197;28;1949;-65
2022/07/14 16:58:24;;;;;;;;;;;;;;;;;;5083223;28;1200;-65
2022/07/14 17:00:49;;;;;;;;;;;;;;;;;;5073729;28;1490;-65
2022/07/14 17:03:14;;;;;;;;;;;;;;;;;;5078544;28;1361;-66
2022/07/14 17:08:23;;;;;;;;;;;;;;;;;;5071178;28;1351;-66
2022/07/14 17:10:48;;;;;;;;;;;;;;;;;;5072510;28;1382;-66
2022/07/14 17:13:14;;;;;;;;;;;;;;;;;;5083608;28;1316;-66
2022/07/14 17:15:39;;;;;;;;;;;;;;;;;;5077612;28;1893;-66
2022/07/14 17:18:04;;;;;;;;;;;;;;;;;;5073825;28;1347;-66